Little Marais, Minnesota
Current Conditions -  °F | °C
As of 2:14 AM on Tuesday 27 Jan 2015 (Local Time) from KBFW Reporting Station
Overcast Overcast  
Wind Chill: 27°   Ceiling: 1400
Heat Index: 27°   Visibility: 10mi
Dew Point: 21°   Wind: 3mph
Humidity: 80%   Direction: 340°NNW
Pressure: 30.02"   Gusts: NA
Location:  47.3801°N, 91.2964°W
Report Text: KBFW 270814Z AUTO 34003KT 10SM OVC014 M03/M06 A3002 RMK AO2
Loading
Personal Weather Stations






























Interactive Weather Map New forecast layout! Learn more

10-Day Weather Forecast

Advertisements
Track Severe Weather on mobile